Jane, Missouri
Current Conditions -  °F | °C
As of 11:55 AM on Saturday 25 Oct 2014 (Local Time) from KVBT Reporting Station
Clear Clear  
Wind Chill: 75°   Ceiling: Unl
Heat Index: 75°   Visibility: 10mi
Dew Point: 63°   Wind: 6mph
Humidity: 65%   Direction: 260°W
Pressure: 30.12"   Gusts: NA
Location:  36.5706°N, 94.342°W
Report Text: KVBT 251655Z AUTO 26005KT 10SM CLR 24/17 A3012 RMK AO1
Loading
Personal Weather Stations






























Interactive Weather Map New forecast layout! Learn more

10-Day Weather Forecast

Advertisements
Track Severe Weather on mobile